createdAt,value
2019-01-05T00:01:23.426Z,29.43
2019-01-05T00:04:05.503Z,29.41
2019-01-05T00:06:44.135Z,29.41
2019-01-05T00:09:14.003Z,29.41
2019-01-05T00:11:56.065Z,29.44
2019-01-05T00:14:42.103Z,29.44
2019-01-05T00:17:17.973Z,29.43
2019-01-05T00:19:48.066Z,29.41
2019-01-05T00:22:33.319Z,29.45
2019-01-05T00:25:03.168Z,29.41
2019-01-05T00:27:51.206Z,29.41
2019-01-05T00:30:21.056Z,29.43
2019-01-05T00:32:59.971Z,29.43
2019-01-05T00:35:45.060Z,29.42
2019-01-05T00:38:26.669Z,29.43
2019-01-05T00:41:05.295Z,29.43
2019-01-05T00:43:41.068Z,29.44
2019-01-05T00:46:26.177Z,29.45
2019-01-05T00:49:14.431Z,29.43
2019-01-05T00:51:49.927Z,29.44
2019-01-05T00:54:22.691Z,29.47
2019-01-05T00:57:08.695Z,29.45
2019-01-05T00:59:53.641Z,29.48
2019-01-05T01:02:41.794Z,29.47
2019-01-05T01:05:27.845Z,29.43
2019-01-05T01:08:03.336Z,29.45
2019-01-05T01:10:33.193Z,29.48
2019-01-05T01:13:19.418Z,29.46
2019-01-05T01:15:55.240Z,29.47
2019-01-05T01:18:33.933Z,29.48
2019-01-05T01:21:12.736Z,29.50
2019-01-05T01:23:46.037Z,29.49
2019-01-05T01:26:24.777Z,29.47
2019-01-05T01:29:10.664Z,29.46
2019-01-05T01:31:46.486Z,29.47
2019-01-05T01:34:16.361Z,29.46
2019-01-05T01:36:46.237Z,29.46
2019-01-05T01:39:23.287Z,29.48
2019-01-05T01:42:07.891Z,29.49
2019-01-05T01:44:43.688Z,29.47
2019-01-05T01:47:13.566Z,29.46
2019-01-05T01:49:59.345Z,29.49
2019-01-05T01:52:39.195Z,29.50
2019-01-05T01:55:24.039Z,29.47
2019-01-05T01:57:59.509Z,29.49
2019-01-05T02:00:47.670Z,29.50
2019-01-05T02:03:17.531Z,29.48
2019-01-05T02:06:04.654Z,29.50
2019-01-05T02:08:36.645Z,29.51
2019-01-05T02:11:26.781Z,29.51
2019-01-05T02:14:15.160Z,29.49
2019-01-05T02:17:10.402Z,29.50
2019-01-05T02:20:10.790Z,29.53
2019-01-05T02:22:55.306Z,29.51
2019-01-05T02:25:44.627Z,29.53
2019-01-05T02:28:48.075Z,29.52
2019-01-05T02:31:21.192Z,29.53
2019-01-05T02:34:17.826Z,29.53
2019-01-05T02:37:09.163Z,29.51
2019-01-05T02:40:33.432Z,29.53
2019-01-05T02:43:12.202Z,29.50
2019-01-05T02:46:02.931Z,29.53
2019-01-05T02:48:48.226Z,29.53
2019-01-05T02:51:46.492Z,29.54
2019-01-05T02:54:28.348Z,29.55
2019-01-05T02:57:10.662Z,29.53
2019-01-05T03:00:00.424Z,29.52
2019-01-05T03:03:01.846Z,29.53
2019-01-05T03:05:46.732Z,29.53
2019-01-05T03:08:55.928Z,29.52
2019-01-05T03:11:37.457Z,29.53
2019-01-05T03:14:53.258Z,29.53
2019-01-05T03:17:47.481Z,29.52
2019-01-05T03:20:40.720Z,29.54
2019-01-05T03:23:37.958Z,29.53
2019-01-05T03:26:35.267Z,29.53
2019-01-05T03:29:27.804Z,29.49
2019-01-05T03:32:26.748Z,29.53
2019-01-05T03:35:05.652Z,29.52
2019-01-05T03:38:00.958Z,29.55
2019-01-05T03:40:42.716Z,29.52
2019-01-05T03:43:21.418Z,29.50
2019-01-05T03:46:18.568Z,29.53
2019-01-05T03:49:00.825Z,29.51
2019-01-05T03:52:02.579Z,29.52
2019-01-05T03:54:50.556Z,29.53
2019-01-05T03:57:38.672Z,29.55
2019-01-05T04:00:36.393Z,29.54
2019-01-05T04:03:12.401Z,29.56
2019-01-05T04:06:06.268Z,29.56
2019-01-05T04:09:01.067Z,29.57
2019-01-05T04:11:53.438Z,29.58
2019-01-05T04:15:15.754Z,29.58
2019-01-05T04:18:20.605Z,29.58
2019-01-05T04:21:15.010Z,29.58
2019-01-05T04:24:17.912Z,29.57
2019-01-05T04:27:19.066Z,29.58
2019-01-05T04:30:14.963Z,29.59
2019-01-05T04:33:03.992Z,29.61
2019-01-05T04:35:51.874Z,29.64
2019-01-05T04:38:39.779Z,29.61
2019-01-05T04:41:37.019Z,29.66
2019-01-05T04:44:28.323Z,29.65
2019-01-05T04:47:26.871Z,29.62
2019-01-05T04:50:37.868Z,29.64
2019-01-05T04:53:54.418Z,29.69
2019-01-05T04:57:14.448Z,29.68
2019-01-05T05:00:04.525Z,29.71
2019-01-05T05:03:22.891Z,29.69
2019-01-05T05:06:30.511Z,29.70
2019-01-05T05:09:44.211Z,29.72
2019-01-05T05:13:02.204Z,29.73
2019-01-05T05:15:59.543Z,29.71
2019-01-05T05:18:59.786Z,29.75
2019-01-05T05:21:40.971Z,29.74
2019-01-05T05:24:48.833Z,29.76
2019-01-05T05:27:43.868Z,29.75
2019-01-05T05:30:36.289Z,29.78
2019-01-05T05:33:25.928Z,29.77
2019-01-05T05:36:27.526Z,29.76
2019-01-05T05:39:06.658Z,29.80
2019-01-05T05:41:56.494Z,29.77
2019-01-05T05:45:07.138Z,29.80
2019-01-05T05:47:56.759Z,29.83
2019-01-05T05:51:04.728Z,29.86
2019-01-05T05:54:27.923Z,29.86
2019-01-05T05:57:25.047Z,29.87
2019-01-05T06:00:35.723Z,29.87
2019-01-05T06:03:37.657Z,29.86
2019-01-05T06:06:25.848Z,29.86
2019-01-05T06:09:30.563Z,29.90
2019-01-05T06:12:42.861Z,29.88
2019-01-05T06:15:30.297Z,29.91
2019-01-05T06:18:14.861Z,29.90
2019-01-05T06:21:20.617Z,29.90
2019-01-05T06:24:32.787Z,29.93
2019-01-05T06:27:33.112Z,29.96
2019-01-05T06:30:33.534Z,29.95
2019-01-05T06:33:42.516Z,30.01
2019-01-05T06:36:33.650Z,29.96
2019-01-05T06:39:12.549Z,29.97
2019-01-05T06:42:20.281Z,29.99
2019-01-05T06:45:20.307Z,29.98
2019-01-05T06:48:36.941Z,29.97
2019-01-05T06:51:29.511Z,29.99
2019-01-05T06:54:36.621Z,30.03
2019-01-05T06:57:30.830Z,30.03
2019-01-05T07:00:24.347Z,30.08
2019-01-05T07:03:29.013Z,30.09
2019-01-05T07:06:41.573Z,30.09
2019-01-05T07:09:46.002Z,30.08
2019-01-05T07:12:24.893Z,30.09
2019-01-05T07:15:47.847Z,30.09
2019-01-05T07:18:45.056Z,30.10
2019-01-05T07:21:34.776Z,30.11
2019-01-05T07:24:36.259Z,30.09
2019-01-05T07:27:59.173Z,30.12
2019-01-05T07:31:07.294Z,30.08
2019-01-05T07:33:58.498Z,30.11
2019-01-05T07:36:50.803Z,30.10
2019-01-05T07:39:45.121Z,30.15
2019-01-05T07:42:49.763Z,30.11
2019-01-05T07:45:54.513Z,30.14
2019-01-05T07:49:03.989Z,30.13
2019-01-05T07:52:10.421Z,30.12
2019-01-05T07:55:17.969Z,30.18
2019-01-05T07:58:06.314Z,30.15
2019-01-05T08:01:03.445Z,30.18
2019-01-05T08:03:56.149Z,30.22
2019-01-05T08:06:49.564Z,30.15
2019-01-05T08:09:40.570Z,30.15
2019-01-05T08:12:31.682Z,30.16
2019-01-05T08:15:36.899Z,30.12
2019-01-05T08:18:30.867Z,30.16
2019-01-05T08:21:26.862Z,30.17
2019-01-05T08:24:20.938Z,30.17
2019-01-05T08:27:17.832Z,30.17
2019-01-05T08:30:08.911Z,30.18
2019-01-05T08:33:02.908Z,30.17
2019-01-05T08:35:54.203Z,30.21
2019-01-05T08:38:33.427Z,30.22
2019-01-05T08:41:21.569Z,30.22
2019-01-05T08:44:09.762Z,30.29
2019-01-05T08:46:57.780Z,30.23
2019-01-05T08:49:39.399Z,30.26
2019-01-05T08:52:24.118Z,30.27
2019-01-05T08:55:09.225Z,30.45
2019-01-05T08:58:23.364Z,30.39
2019-01-05T09:01:46.056Z,30.34
2019-01-05T09:04:55.092Z,30.31
2019-01-05T09:07:40.242Z,30.55
2019-01-05T09:10:34.862Z,30.62
2019-01-05T09:13:35.072Z,30.77
2019-01-05T09:16:34.948Z,30.96
2019-01-05T09:19:19.984Z,31.04
2019-01-05T09:22:24.753Z,31.09
2019-01-05T09:25:18.753Z,31.29
2019-01-05T09:28:26.368Z,31.49
2019-01-05T09:31:18.826Z,31.35
2019-01-05T09:34:18.916Z,31.39
2019-01-05T09:37:06.881Z,31.76
2019-01-05T09:40:12.354Z,31.80
2019-01-05T09:43:30.923Z,31.70
2019-01-05T09:46:21.548Z,31.67
2019-01-05T09:49:42.581Z,31.73
2019-01-05T09:52:36.504Z,32.09
2019-01-05T09:55:28.776Z,31.83
2019-01-05T09:58:16.798Z,32.03
2019-01-05T10:01:19.870Z,31.91
2019-01-05T10:04:08.108Z,31.56
2019-01-05T10:06:57.813Z,31.47
2019-01-05T10:10:00.980Z,31.58
2019-01-05T10:12:39.651Z,31.52
2019-01-05T10:15:40.830Z,31.44
2019-01-05T10:18:22.971Z,31.43
2019-01-05T10:21:07.381Z,31.41
2019-01-05T10:24:09.400Z,31.35
2019-01-05T10:27:07.818Z,31.68
2019-01-05T10:30:14.018Z,31.55
2019-01-05T10:33:08.260Z,31.35
2019-01-05T10:36:20.424Z,31.46
2019-01-05T10:39:02.251Z,31.46
2019-01-05T10:42:06.900Z,31.53
2019-01-05T10:45:15.852Z,31.58
2019-01-05T10:48:32.540Z,31.75
2019-01-05T10:51:40.476Z,31.50
2019-01-05T10:54:31.738Z,31.42
2019-01-05T10:57:45.951Z,31.64
2019-01-05T11:00:56.819Z,31.51
2019-01-05T11:03:58.191Z,31.81
2019-01-05T11:06:43.393Z,31.97
2019-01-05T11:09:38.932Z,32.29
2019-01-05T11:12:14.838Z,32.56
2019-01-05T11:15:10.032Z,33.47
2019-01-05T11:17:55.049Z,34.67
2019-01-05T11:21:05.778Z,34.65
2019-01-05T11:23:47.778Z,34.89
2019-01-05T11:26:35.526Z,34.86
2019-01-05T11:29:11.344Z,35.17
2019-01-05T11:31:49.962Z,35.26
2019-01-05T11:34:51.652Z,35.30
2019-01-05T11:38:05.349Z,33.85
2019-01-05T11:40:53.004Z,33.44
2019-01-05T11:43:53.159Z,33.33
2019-01-05T11:46:55.162Z,33.52
2019-01-05T11:49:48.664Z,33.64
2019-01-05T11:52:39.899Z,33.32
2019-01-05T11:55:27.404Z,33.89
2019-01-05T11:58:18.819Z,33.69
2019-01-05T12:01:00.571Z,33.74
2019-01-05T12:04:16.209Z,33.63
2019-01-05T12:07:11.385Z,33.65
2019-01-05T12:10:16.182Z,33.52
2019-01-05T12:13:07.146Z,33.47
2019-01-05T12:15:52.527Z,33.58
2019-01-05T12:18:37.510Z,33.34
2019-01-05T12:21:59.058Z,33.35
2019-01-05T12:24:57.954Z,33.19
2019-01-05T12:27:48.654Z,33.17
2019-01-05T12:30:27.231Z,33.19
2019-01-05T12:33:25.722Z,33.25
2019-01-05T12:36:47.309Z,33.43
2019-01-05T12:39:53.506Z,33.34
2019-01-05T12:42:53.833Z,33.18
2019-01-05T12:45:59.997Z,33.13
2019-01-05T12:48:49.808Z,33.25
2019-01-05T12:51:45.434Z,33.17
2019-01-05T12:54:35.076Z,33.14
2019-01-05T12:57:39.726Z,33.10
2019-01-05T13:00:26.558Z,32.98
2019-01-05T13:03:28.499Z,32.98
2019-01-05T13:06:27.460Z,32.91
2019-01-05T13:09:36.789Z,32.81
2019-01-05T13:12:44.509Z,32.71
2019-01-05T13:15:35.541Z,32.65
2019-01-05T13:18:34.093Z,32.59
2019-01-05T13:21:13.174Z,32.73
2019-01-05T13:24:37.631Z,32.74
2019-01-05T13:27:48.817Z,32.90
2019-01-05T13:31:03.177Z,33.00
2019-01-05T13:33:54.269Z,32.41
2019-01-05T13:36:42.307Z,32.85
2019-01-05T13:39:54.579Z,33.36
2019-01-05T13:43:00.969Z,33.39
2019-01-05T13:45:59.909Z,33.30
2019-01-05T13:49:07.868Z,33.39
2019-01-05T13:52:14.213Z,33.40
2019-01-05T13:54:58.839Z,33.20
2019-01-05T13:57:37.649Z,33.13
2019-01-05T14:00:21.155Z,33.04
2019-01-05T14:02:51.035Z,32.95
2019-01-05T14:05:37.091Z,32.87
2019-01-05T14:08:13.198Z,32.79
2019-01-05T14:10:49.001Z,32.62
2019-01-05T14:13:21.710Z,32.57
2019-01-05T14:15:57.405Z,32.55
2019-01-05T14:18:27.288Z,32.72
2019-01-05T14:21:12.000Z,32.57
2019-01-05T14:23:58.011Z,32.56
2019-01-05T14:26:27.851Z,32.56
2019-01-05T14:29:06.655Z,32.55
2019-01-05T14:31:45.500Z,32.53
2019-01-05T14:34:21.126Z,32.49
2019-01-05T14:36:53.756Z,32.50
2019-01-05T14:39:39.959Z,32.53
2019-01-05T14:42:26.047Z,32.45
2019-01-05T14:45:01.919Z,32.49
2019-01-05T14:47:47.928Z,32.51
2019-01-05T14:50:34.430Z,32.54
2019-01-05T14:53:16.581Z,33.10
2019-01-05T14:55:46.443Z,32.85
2019-01-05T14:58:16.324Z,32.93
2019-01-05T15:00:57.986Z,32.96
2019-01-05T15:03:30.534Z,33.24
2019-01-05T15:06:03.148Z,33.42
2019-01-05T15:08:32.989Z,33.73
2019-01-05T15:11:08.618Z,33.38
2019-01-05T15:13:38.459Z,33.38
2019-01-05T15:16:24.889Z,33.28
2019-01-05T15:18:54.776Z,33.33
2019-01-05T15:21:33.421Z,33.24
2019-01-05T15:24:08.954Z,33.16
2019-01-05T15:26:41.311Z,33.10
2019-01-05T15:29:27.283Z,33.08
2019-01-05T15:31:57.166Z,32.99
2019-01-05T15:34:27.003Z,32.92
2019-01-05T15:36:59.907Z,32.85
2019-01-05T15:39:45.765Z,32.80
2019-01-05T15:42:18.317Z,32.78
2019-01-05T15:45:06.286Z,32.68
2019-01-05T15:47:52.582Z,32.66
2019-01-05T15:50:34.438Z,32.68
2019-01-05T15:53:07.148Z,32.66
2019-01-05T15:55:53.114Z,32.65
2019-01-05T15:58:39.220Z,32.61
2019-01-05T16:01:15.241Z,32.59
2019-01-05T16:03:57.284Z,32.53
2019-01-05T16:06:42.104Z,32.50
2019-01-05T16:09:14.955Z,32.38
2019-01-05T16:11:44.837Z,31.85
2019-01-05T16:14:14.696Z,31.29
2019-01-05T16:17:00.876Z,31.55
2019-01-05T16:19:30.737Z,31.33
2019-01-05T16:22:00.631Z,31.18
2019-01-05T16:24:36.631Z,30.80
2019-01-05T16:27:21.550Z,31.03
2019-01-05T16:30:07.353Z,30.64
2019-01-05T16:32:46.261Z,30.72
2019-01-05T16:35:22.158Z,30.69
2019-01-05T16:37:57.917Z,30.48
2019-01-05T16:40:44.059Z,30.46
2019-01-05T16:43:16.614Z,30.60
2019-01-05T16:45:52.204Z,30.53
2019-01-05T16:48:38.042Z,30.62
2019-01-05T16:51:20.158Z,30.37
2019-01-05T16:53:50.032Z,30.28
2019-01-05T16:56:20.953Z,30.40
2019-01-05T16:59:07.322Z,30.36
2019-01-05T17:01:55.478Z,30.30
2019-01-05T17:04:40.710Z,30.21
2019-01-05T17:07:13.021Z,30.31
2019-01-05T17:09:59.385Z,30.42
2019-01-05T17:12:32.348Z,30.27
2019-01-05T17:15:20.586Z,30.05
2019-01-05T17:17:50.436Z,29.88
2019-01-05T17:20:20.312Z,29.87
2019-01-05T17:22:55.908Z,30.16
2019-01-05T17:25:28.212Z,30.71
2019-01-05T17:28:14.006Z,30.99
2019-01-05T17:30:43.855Z,31.03
2019-01-05T17:33:30.128Z,30.93
2019-01-05T17:36:00.006Z,30.89
2019-01-05T17:38:45.766Z,30.98
2019-01-05T17:41:27.970Z,30.94
2019-01-05T17:44:03.617Z,30.94
2019-01-05T17:46:39.673Z,30.91
2019-01-05T17:49:21.520Z,30.94
2019-01-05T17:51:54.032Z,30.93
2019-01-05T17:54:35.956Z,30.89
2019-01-05T17:57:08.472Z,30.89
2019-01-05T17:59:40.868Z,30.91
2019-01-05T18:02:16.545Z,30.92
2019-01-05T18:05:01.221Z,30.89
2019-01-05T18:07:46.138Z,30.84
2019-01-05T18:10:33.928Z,30.94
2019-01-05T18:13:16.005Z,30.89
2019-01-05T18:16:03.166Z,30.86
2019-01-05T18:18:35.439Z,30.92
2019-01-05T18:21:21.462Z,30.87
2019-01-05T18:23:51.343Z,30.86
2019-01-05T18:26:33.215Z,30.88
2019-01-05T18:29:15.015Z,30.81
2019-01-05T18:31:53.388Z,30.84
2019-01-05T18:34:35.447Z,30.83
2019-01-05T18:37:05.261Z,30.79
2019-01-05T18:39:50.994Z,30.85
2019-01-05T18:42:26.967Z,30.83
2019-01-05T18:45:02.454Z,30.84
2019-01-05T18:47:35.206Z,30.86
2019-01-05T18:50:09.568Z,30.86
2019-01-05T18:52:55.863Z,30.86
2019-01-05T18:55:42.190Z,30.91
2019-01-05T18:58:12.077Z,30.84
2019-01-05T19:00:53.956Z,30.86
2019-01-05T19:03:35.575Z,30.82
2019-01-05T19:06:23.440Z,30.80
2019-01-05T19:08:59.296Z,30.91
2019-01-05T19:11:45.874Z,30.90
2019-01-05T19:14:30.425Z,30.87
2019-01-05T19:17:12.137Z,30.88
2019-01-05T19:19:44.793Z,30.82
2019-01-05T19:22:17.177Z,30.84
2019-01-05T19:25:03.024Z,30.82
2019-01-05T19:27:35.518Z,30.79
2019-01-05T19:30:07.029Z,30.77
2019-01-05T19:32:53.386Z,30.87
2019-01-05T19:35:29.157Z,30.83
2019-01-05T19:38:01.512Z,30.82
2019-01-05T19:40:47.275Z,30.82
2019-01-05T19:43:32.062Z,30.88
2019-01-05T19:46:17.887Z,30.85
2019-01-05T19:48:59.526Z,30.80
2019-01-05T19:51:41.432Z,30.86
2019-01-05T19:54:17.255Z,30.85
2019-01-05T19:57:02.077Z,30.87
2019-01-05T19:59:48.037Z,30.91
2019-01-05T20:02:17.911Z,30.84
2019-01-05T20:04:47.745Z,30.87
2019-01-05T20:07:34.037Z,30.83
2019-01-05T20:10:16.056Z,30.92
2019-01-05T20:13:01.312Z,30.86
2019-01-05T20:15:33.884Z,30.92
2019-01-05T20:18:09.281Z,30.91
2019-01-05T20:20:45.103Z,30.87
2019-01-05T20:23:20.466Z,30.85
2019-01-05T20:26:08.391Z,30.88
2019-01-05T20:28:53.334Z,30.94
2019-01-05T20:31:39.229Z,30.95
2019-01-05T20:34:12.103Z,30.86
2019-01-05T20:36:41.939Z,30.89
2019-01-05T20:39:28.331Z,30.85
2019-01-05T20:42:01.167Z,30.85
2019-01-05T20:44:37.077Z,30.90
2019-01-05T20:47:22.981Z,30.81
2019-01-05T20:50:08.762Z,30.85
2019-01-05T20:52:44.591Z,30.80
2019-01-05T20:55:17.103Z,30.79
2019-01-05T20:58:03.167Z,30.85
2019-01-05T21:00:35.969Z,30.83
2019-01-05T21:03:05.823Z,30.87
2019-01-05T21:05:53.805Z,30.89
2019-01-05T21:08:29.623Z,30.83
2019-01-05T21:11:17.486Z,30.81
2019-01-05T21:13:47.346Z,30.89
2019-01-05T21:16:32.393Z,30.90
2019-01-05T21:19:04.688Z,30.83
2019-01-05T21:21:40.030Z,30.84
2019-01-05T21:24:09.888Z,30.90
2019-01-05T21:26:39.762Z,30.80
2019-01-05T21:29:12.120Z,30.89
2019-01-05T21:31:41.957Z,30.93
2019-01-05T21:34:17.774Z,30.92
2019-01-05T21:36:53.641Z,30.91
2019-01-05T21:39:23.510Z,30.91
2019-01-05T21:41:53.385Z,30.79
2019-01-05T21:44:25.684Z,30.84
2019-01-05T21:47:01.829Z,30.86
2019-01-05T21:49:47.720Z,30.84
2019-01-05T21:52:34.099Z,30.89
2019-01-05T21:55:06.917Z,30.86
2019-01-05T21:57:52.057Z,30.85
2019-01-05T22:00:33.915Z,30.90
2019-01-05T22:03:12.757Z,30.88
2019-01-05T22:05:45.722Z,30.85
2019-01-05T22:08:18.288Z,30.85
2019-01-05T22:11:04.656Z,30.87
2019-01-05T22:13:34.498Z,30.87
2019-01-05T22:16:04.374Z,30.90
2019-01-05T22:18:40.203Z,30.91
2019-01-05T22:21:10.066Z,30.91
2019-01-05T22:23:56.542Z,30.90
2019-01-05T22:26:31.852Z,30.92
2019-01-05T22:29:10.621Z,30.91
2019-01-05T22:31:46.670Z,30.92
2019-01-05T22:34:32.458Z,30.92
2019-01-05T22:37:05.272Z,30.91
2019-01-05T22:39:51.122Z,30.93
2019-01-05T22:42:20.971Z,30.92
2019-01-05T22:45:06.761Z,30.90
2019-01-05T22:47:48.456Z,30.91
2019-01-05T22:50:20.804Z,30.91
2019-01-05T22:53:07.023Z,30.91
2019-01-05T22:55:53.227Z,30.90
2019-01-05T22:58:39.014Z,30.90
2019-01-05T23:01:17.732Z,30.90
2019-01-05T23:04:04.054Z,30.88
2019-01-05T23:06:33.914Z,30.90
2019-01-05T23:09:09.789Z,30.88
2019-01-05T23:11:55.892Z,30.89
2019-01-05T23:14:34.416Z,30.88
2019-01-05T23:17:20.520Z,30.89
2019-01-05T23:19:56.482Z,30.87
2019-01-05T23:22:29.068Z,30.89
2019-01-05T23:25:04.366Z,30.90
2019-01-05T23:27:34.216Z,30.86
2019-01-05T23:30:20.322Z,30.84
2019-01-05T23:32:50.172Z,30.88
2019-01-05T23:35:25.824Z,30.87
2019-01-05T23:37:55.656Z,30.87
2019-01-05T23:40:31.488Z,30.85
2019-01-05T23:43:16.338Z,30.83
2019-01-05T23:46:02.572Z,30.85
2019-01-05T23:48:44.213Z,30.84
2019-01-05T23:51:16.567Z,30.83
2019-01-05T23:53:49.049Z,30.84
2019-01-05T23:56:35.088Z,30.86
2019-01-05T23:59:20.838Z,30.83
